Time;durP1;ratioP1;P1;durP2;ratioP2;P2;SDS_P1;SDS_P2;PMS_P1;PMS_P2;Temp;Humidity;BMP_temperature;BMP_pressure;BME280_temperature;BME280_humidity;BME280_pressure;Samples;Min_cycle;Max_cycle;Signal;HPM_P1;HPM_P2
2023/08/11 00:00:21;;;;;;;;;;;;;;;23.10;100.00;100006.97;5033117;28;20385;-72
2023/08/11 00:02:49;;;;;;;;;;;;;;;23.09;100.00;100013.38;5033467;28;20358;-72
2023/08/11 00:05:17;;;;;;;;;;;;;;;23.08;100.00;100003.69;5033453;28;19928;-71
2023/08/11 00:07:42;;;;;;;;;;;;;;;23.15;100.00;100007.16;5033136;28;20339;-72
2023/08/11 00:10:08;;;;;;;;;;;;;;;23.18;100.00;100009.44;5029370;28;19921;-72
2023/08/11 00:12:33;;;;;;;;;;;;;;;23.01;100.00;100008.25;5032922;28;19921;-71
2023/08/11 00:14:59;;;;;;;;;;;;;;;22.83;100.00;100013.47;5033539;28;19921;-72
2023/08/11 00:17:24;;;;;;;;;;;;;;;22.64;100.00;100011.63;5032945;28;19921;-72
2023/08/11 00:19:49;;;;;;;;;;;;;;;22.60;100.00;100015.78;5033104;28;19967;-72
2023/08/11 00:22:15;;;;;;;;;;;;;;;22.60;100.00;100013.91;5031650;28;19993;-73
2023/08/11 00:24:40;;;;;;;;;;;;;;;22.53;100.00;100015.78;5032863;28;19961;-71
2023/08/11 00:27:06;;;;;;;;;;;;;;;22.44;100.00;100017.84;5033227;28;19922;-71
2023/08/11 00:29:31;;;;;;;;;;;;;;;22.35;100.00;100019.09;5032693;28;19930;-72
2023/08/11 00:32:00;;;;;;;;;;;;;;;22.42;100.00;100019.94;5031739;28;19960;-72
2023/08/11 00:34:25;;;;;;;;;;;;;;;22.29;100.00;100016.41;5032640;28;19928;-72
2023/08/11 00:36:55;;;;;;;;;;;;;;;22.18;100.00;100017.88;5031727;28;19921;-72
2023/08/11 00:39:20;;;;;;;;;;;;;;;22.21;100.00;100022.81;5032679;28;19921;-71
2023/08/11 00:41:45;;;;;;;;;;;;;;;22.23;100.00;100018.06;5050276;28;19963;-73
2023/08/11 00:44:11;;;;;;;;;;;;;;;22.27;100.00;100024.66;5035149;28;19920;-71
2023/08/11 00:46:36;;;;;;;;;;;;;;;22.28;100.00;100022.81;5040139;28;19927;-73
2023/08/11 00:49:02;;;;;;;;;;;;;;;22.38;100.00;100032.13;5052875;28;20024;-73
2023/08/11 00:51:28;;;;;;;;;;;;;;;22.45;100.00;100038.31;5051818;28;19920;-72
2023/08/11 00:53:53;;;;;;;;;;;;;;;22.46;100.00;100037.28;5052441;28;19925;-71
2023/08/11 00:56:22;;;;;;;;;;;;;;;22.43;100.00;100037.72;5042803;28;19947;-72
2023/08/11 00:58:49;;;;;;;;;;;;;;;22.49;100.00;100029.84;5027864;28;19967;-72
2023/08/11 01:01:15;;;;;;;;;;;;;;;22.51;100.00;100038.53;5050458;28;19967;-71
2023/08/11 01:03:43;;;;;;;;;;;;;;;22.50;100.00;100042.28;5049186;28;19956;-72
2023/08/11 01:06:16;;;;;;;;;;;;;;;22.50;100.00;100043.09;5049197;28;19921;-72
2023/08/11 01:08:52;;;;;;;;;;;;;;;22.46;100.00;100053.44;5049119;28;19921;-72
2023/08/11 01:11:44;;;;;;;;;;;;;;;22.48;100.00;100057.78;5051545;28;20360;-71
2023/08/11 01:14:16;;;;;;;;;;;;;;;22.53;100.00;100055.28;5046404;28;19921;-72
2023/08/11 01:16:43;;;;;;;;;;;;;;;22.51;100.00;100060.03;5033787;28;20028;-72
2023/08/11 01:19:12;;;;;;;;;;;;;;;22.53;100.00;100055.28;5049480;28;19974;-72
2023/08/11 01:21:39;;;;;;;;;;;;;;;22.50;100.00;100059.25;5041060;28;19986;-72
2023/08/11 01:24:05;;;;;;;;;;;;;;;22.51;100.00;100060.03;5052164;28;19928;-72
2023/08/11 01:26:30;;;;;;;;;;;;;;;22.49;100.00;100062.97;5052128;28;19921;-72
2023/08/11 01:28:55;;;;;;;;;;;;;;;22.46;100.00;100066.88;5052085;28;20008;-72
2023/08/11 01:31:21;;;;;;;;;;;;;;;22.46;100.00;100064.19;5050464;28;19921;-71
2023/08/11 01:33:46;;;;;;;;;;;;;;;22.36;100.00;100058.41;5052196;28;19983;-72
2023/08/11 01:36:11;;;;;;;;;;;;;;;22.33;100.00;100061.50;5051475;28;19965;-72
2023/08/11 01:38:37;;;;;;;;;;;;;;;22.31;100.00;100063.56;5037345;28;19921;-72
2023/08/11 01:41:02;;;;;;;;;;;;;;;22.32;100.00;100062.56;5051495;28;19932;-72
2023/08/11 01:43:28;;;;;;;;;;;;;;;22.30;100.00;100061.09;5038715;28;19920;-72
2023/08/11 01:45:55;;;;;;;;;;;;;;;22.29;100.00;100068.31;5051913;28;20425;-72
2023/08/11 01:48:21;;;;;;;;;;;;;;;22.28;100.00;100077.41;5051214;28;19920;-72
2023/08/11 01:50:47;;;;;;;;;;;;;;;22.26;100.00;100079.50;5033757;28;19990;-72
2023/08/11 01:53:12;;;;;;;;;;;;;;;22.22;100.00;100086.31;5050991;28;19991;-72
2023/08/11 01:55:38;;;;;;;;;;;;;;;22.20;100.00;100085.69;5047134;28;19959;-72
2023/08/11 01:58:04;;;;;;;;;;;;;;;22.17;100.00;100088.78;5029334;28;20361;-72
2023/08/11 02:00:30;;;;;;;;;;;;;;;22.16;100.00;100086.28;5028752;28;19921;-72
2023/08/11 02:02:56;;;;;;;;;;;;;;;22.14;100.00;100085.69;5051100;28;20416;-72
2023/08/11 02:05:24;;;;;;;;;;;;;;;22.14;100.00;100083.81;5033320;28;19979;-72
2023/08/11 02:07:49;;;;;;;;;;;;;;;22.08;100.00;100084.66;5033140;28;19921;-72
2023/08/11 02:10:15;;;;;;;;;;;;;;;22.05;100.00;100087.72;5050997;28;19946;-72
2023/08/11 02:12:40;;;;;;;;;;;;;;;22.00;100.00;100087.50;5032835;28;19936;-72
2023/08/11 02:15:06;;;;;;;;;;;;;;;22.01;100.00;100086.47;5039484;28;19971;-72
2023/08/11 02:17:32;;;;;;;;;;;;;;;22.04;100.00;100086.06;5050776;28;19928;-73
2023/08/11 02:19:58;;;;;;;;;;;;;;;22.06;100.00;100092.06;5051321;28;20408;-73
2023/08/11 02:22:23;;;;;;;;;;;;;;;22.03;100.00;100089.81;5050699;28;19924;-71
2023/08/11 02:24:49;;;;;;;;;;;;;;;22.04;100.00;100091.44;5033046;28;20320;-71
2023/08/11 02:27:14;;;;;;;;;;;;;;;22.01;100.00;100091.88;5050863;28;20019;-72
2023/08/11 02:29:39;;;;;;;;;;;;;;;21.90;100.00;100095.94;5050857;28;19928;-72
2023/08/11 02:32:07;;;;;;;;;;;;;;;21.88;100.00;100097.16;5050913;28;19921;-72
2023/08/11 02:34:33;;;;;;;;;;;;;;;21.77;100.00;100097.75;5050780;28;19929;-72
2023/08/11 02:36:58;;;;;;;;;;;;;;;21.80;100.00;100105.41;5051064;28;20015;-72
2023/08/11 02:39:24;;;;;;;;;;;;;;;21.72;100.00;100102.91;5050639;28;19944;-73
2023/08/11 02:41:49;;;;;;;;;;;;;;;21.71;100.00;100101.25;5050643;28;20360;-72
2023/08/11 02:44:14;;;;;;;;;;;;;;;21.67;100.00;100116.13;5029349;28;19950;-72
2023/08/11 02:46:40;;;;;;;;;;;;;;;21.61;100.00;100105.16;5054359;28;19972;-72
2023/08/11 02:49:06;;;;;;;;;;;;;;;21.54;100.00;100098.91;5055021;28;19917;-72
2023/08/11 02:51:31;;;;;;;;;;;;;;;21.53;100.00;100105.31;5054543;28;19936;-71
2023/08/11 02:53:56;;;;;;;;;;;;;;;21.46;100.00;100103.63;5054923;28;20399;-72
2023/08/11 02:56:22;;;;;;;;;;;;;;;21.47;100.00;100100.75;5036362;28;19917;-73
2023/08/11 02:58:48;;;;;;;;;;;;;;;21.47;100.00;100116.03;5054795;28;19921;-72
2023/08/11 03:01:14;;;;;;;;;;;;;;;21.46;100.00;100109.81;5034532;28;19921;-71
2023/08/11 03:03:42;;;;;;;;;;;;;;;21.47;100.00;100111.47;5054666;28;19921;-72
2023/08/11 03:06:08;;;;;;;;;;;;;;;21.48;100.00;100115.81;5036791;28;19929;-72
2023/08/11 03:08:34;;;;;;;;;;;;;;;21.50;100.00;100111.06;5054522;28;19924;-72
2023/08/11 03:10:59;;;;;;;;;;;;;;;21.42;100.00;100113.94;5045623;28;19921;-72
2023/08/11 03:13:31;;;;;;;;;;;;;;;21.39;100.00;100114.31;5052821;28;20026;-72
2023/08/11 03:16:00;;;;;;;;;;;;;;;21.43;100.00;100123.66;5053889;28;19916;-72
2023/08/11 03:18:27;;;;;;;;;;;;;;;21.43;100.00;100120.97;5052842;28;19921;-72
2023/08/11 03:20:53;;;;;;;;;;;;;;;21.40;100.00;100118.66;5036480;28;20015;-72
2023/08/11 03:23:19;;;;;;;;;;;;;;;21.31;100.00;100119.03;5036205;28;20004;-72
2023/08/11 03:25:44;;;;;;;;;;;;;;;21.24;100.00;100121.69;5054351;28;20016;-72
2023/08/11 03:28:11;;;;;;;;;;;;;;;21.17;100.00;100121.66;5052826;28;20399;-72
2023/08/11 03:30:39;;;;;;;;;;;;;;;21.23;100.00;100120.84;5041201;28;19920;-72
2023/08/11 03:33:05;;;;;;;;;;;;;;;21.29;100.00;100113.03;5040753;28;19928;-71
2023/08/11 03:35:41;;;;;;;;;;;;;;;21.27;100.00;100115.91;5035677;28;19924;-72
2023/08/11 03:38:06;;;;;;;;;;;;;;;21.29;100.00;100127.28;5054416;28;19921;-71
2023/08/11 03:40:33;;;;;;;;;;;;;;;21.28;100.00;100128.31;5035597;28;20562;-72
2023/08/11 03:42:58;;;;;;;;;;;;;;;21.31;100.00;100132.47;5036042;28;19970;-72
2023/08/11 03:45:24;;;;;;;;;;;;;;;21.33;100.00;100135.75;5035225;28;19927;-72
2023/08/11 03:47:49;;;;;;;;;;;;;;;21.32;100.00;100140.31;5038470;28;19924;-72
2023/08/11 03:50:19;;;;;;;;;;;;;;;21.27;100.00;100148.13;5033153;28;19921;-72
2023/08/11 03:52:45;;;;;;;;;;;;;;;21.27;100.00;100142.75;5035571;28;19920;-72
2023/08/11 03:55:11;;;;;;;;;;;;;;;21.24;100.00;100144.00;5035927;28;20392;-71
2023/08/11 03:57:37;;;;;;;;;;;;;;;21.19;100.00;100140.25;5034806;28;19960;-72
2023/08/11 04:00:15;;;;;;;;;;;;;;;21.21;100.00;100144.38;5039585;28;19925;-71
2023/08/11 04:02:42;;;;;;;;;;;;;;;21.21;100.00;100148.91;5032000;28;19925;-72
2023/08/11 04:05:12;;;;;;;;;;;;;;;21.19;100.00;100146.44;5040475;28;19975;-72
2023/08/11 04:07:38;;;;;;;;;;;;;;;21.19;100.00;100150.97;5042199;28;20027;-72
2023/08/11 04:10:10;;;;;;;;;;;;;;;21.15;100.00;100144.31;5045889;28;20067;-71
2023/08/11 04:12:35;;;;;;;;;;;;;;;21.09;100.00;100153.97;5053142;28;20628;-73
2023/08/11 04:15:01;;;;;;;;;;;;;;;21.04;100.00;100150.22;5052877;28;19927;-72
2023/08/11 04:17:26;;;;;;;;;;;;;;;20.89;100.00;100154.84;5052789;28;19936;-71
2023/08/11 04:19:53;;;;;;;;;;;;;;;20.89;100.00;100149.50;5031356;28;19928;-71
2023/08/11 04:22:19;;;;;;;;;;;;;;;20.97;100.00;100152.84;5034889;28;19921;-71
2023/08/11 04:24:45;;;;;;;;;;;;;;;20.94;100.00;100153.25;5051807;28;20403;-73
2023/08/11 04:27:11;;;;;;;;;;;;;;;20.96;100.00;100158.44;5027328;28;19924;-71
2023/08/11 04:29:36;;;;;;;;;;;;;;;20.94;100.00;100157.78;5034812;28;20494;-71
2023/08/11 04:32:04;;;;;;;;;;;;;;;20.96;100.00;100161.09;5042608;28;20394;-70
2023/08/11 04:34:32;;;;;;;;;;;;;;;20.93;100.00;100166.84;5051376;28;19928;-73
2023/08/11 04:36:57;;;;;;;;;;;;;;;20.81;100.00;100159.34;5042930;28;19920;-71
2023/08/11 04:39:23;;;;;;;;;;;;;;;20.90;100.00;100161.88;5035011;28;20389;-73
2023/08/11 04:41:48;;;;;;;;;;;;;;;20.94;100.00;100157.78;5035237;28;19921;-72
2023/08/11 04:44:14;;;;;;;;;;;;;;;20.90;100.00;100167.25;5034764;28;19921;-71
2023/08/11 04:46:40;;;;;;;;;;;;;;;20.89;100.00;100163.75;5050861;28;19921;-71
2023/08/11 04:49:05;;;;;;;;;;;;;;;20.87;100.00;100162.25;5037889;28;19921;-72
2023/08/11 04:51:32;;;;;;;;;;;;;;;20.78;100.00;100162.41;5052225;28;19921;-72
2023/08/11 04:54:00;;;;;;;;;;;;;;;20.80;100.00;100173.75;5034675;28;20031;-72
2023/08/11 04:56:26;;;;;;;;;;;;;;;20.80;100.00;100168.41;5052259;28;19928;-72
2023/08/11 04:58:53;;;;;;;;;;;;;;;20.81;100.00;100164.69;5052693;28;19991;-72
2023/08/11 05:01:20;;;;;;;;;;;;;;;20.83;100.00;100173.38;5051598;28;19920;-72
2023/08/11 05:03:45;;;;;;;;;;;;;;;20.83;100.00;100181.44;5052318;28;19967;-72
2023/08/11 05:06:11;;;;;;;;;;;;;;;20.82;100.00;100182.47;5052460;28;20399;-72
2023/08/11 05:08:37;;;;;;;;;;;;;;;20.77;100.00;100190.25;5051885;28;20270;-72
2023/08/11 05:11:03;;;;;;;;;;;;;;;20.70;100.00;100189.38;5051159;28;20074;-72
2023/08/11 05:13:28;;;;;;;;;;;;;;;20.73;100.00;100189.00;5051897;28;20011;-72
2023/08/11 05:15:53;;;;;;;;;;;;;;;20.62;100.00;100192.16;5051982;28;20396;-72
2023/08/11 05:18:19;;;;;;;;;;;;;;;20.63;100.00;100201.88;5051692;28;20365;-70
2023/08/11 05:20:46;;;;;;;;;;;;;;;20.66;100.00;100201.50;5051891;28;20011;-71
2023/08/11 05:23:11;;;;;;;;;;;;;;;20.67;100.00;100195.13;5051871;28;20364;-72
2023/08/11 05:25:37;;;;;;;;;;;;;;;20.62;100.00;100205.56;5051712;28;19929;-72
2023/08/11 05:28:02;;;;;;;;;;;;;;;20.66;100.00;100201.50;5052063;28;20340;-71
2023/08/11 05:30:27;;;;;;;;;;;;;;;20.75;100.00;100202.19;5051076;28;19921;-72
2023/08/11 05:32:53;;;;;;;;;;;;;;;20.78;100.00;100202.66;5051551;28;19971;-73
2023/08/11 05:35:18;;;;;;;;;;;;;;;20.83;100.00;100212.78;5051327;28;20393;-71
2023/08/11 05:37:43;;;;;;;;;;;;;;;20.90;100.00;100210.19;5051739;28;20408;-71
2023/08/11 05:40:09;;;;;;;;;;;;;;;20.90;100.00;100210.19;5051668;28;19921;-72
2023/08/11 05:42:35;;;;;;;;;;;;;;;20.78;100.00;100213.38;5051490;28;19925;-71
2023/08/11 05:45:00;;;;;;;;;;;;;;;20.83;100.00;100227.03;5051645;28;19955;-72
2023/08/11 05:47:26;;;;;;;;;;;;;;;20.82;100.00;100222.69;5050959;28;19956;-72
2023/08/11 05:49:53;;;;;;;;;;;;;;;20.89;100.00;100224.59;5051443;28;19917;-71
2023/08/11 05:52:18;;;;;;;;;;;;;;;20.89;100.00;100219.25;5051296;28;19921;-72
2023/08/11 05:54:44;;;;;;;;;;;;;;;20.93;100.00;100215.97;5051231;28;19932;-71
2023/08/11 05:57:09;;;;;;;;;;;;;;;20.99;100.00;100215.19;5051704;28;19928;-73
2023/08/11 05:59:34;;;;;;;;;;;;;;;20.95;100.00;100224.66;5051171;28;20051;-73
2023/08/11 06:02:00;;;;;;;;;;;;;;;20.92;100.00;100224.19;5051054;28;19982;-72
2023/08/11 06:04:25;;;;;;;;;;;;;;;21.01;100.00;100223.06;5050668;28;20020;-72
2023/08/11 06:06:51;;;;;;;;;;;;;;;21.06;100.00;100223.31;5051498;28;19944;-71
2023/08/11 06:09:16;;;;;;;;;;;;;;;21.12;100.00;100222.53;5050843;28;19921;-71
2023/08/11 06:11:41;;;;;;;;;;;;;;;21.20;100.00;100217.88;5051309;28;20356;-70
2023/08/11 06:14:07;;;;;;;;;;;;;;;21.29;100.00;100226.59;5051390;28;19921;-72
2023/08/11 06:16:32;;;;;;;;;;;;;;;21.36;100.00;100234.72;5050847;28;19920;-72
2023/08/11 06:18:58;;;;;;;;;;;;;;;21.36;100.00;100227.50;5051344;28;19952;-72
2023/08/11 06:21:23;;;;;;;;;;;;;;;21.42;100.00;100226.72;5050271;28;20336;-73
2023/08/11 06:23:49;;;;;;;;;;;;;;;21.48;100.00;100233.16;5050853;28;20023;-73
2023/08/11 06:26:14;;;;;;;;;;;;;;;21.57;100.00;100240.00;5051014;28;19920;-72
2023/08/11 06:28:41;;;;;;;;;;;;;;;21.61;100.00;100234.06;5050965;28;20007;-72
2023/08/11 06:31:08;;;;;;;;;;;;;;;21.71;100.00;100235.56;5050850;28;19920;-72
2023/08/11 06:33:34;;;;;;;;;;;;;;;21.73;100.00;100233.50;5050687;28;20389;-72
2023/08/11 06:35:59;;;;;;;;;;;;;;;21.81;100.00;100236.00;5050824;28;19920;-72
2023/08/11 06:38:24;;;;;;;;;;;;;;;21.87;100.00;100245.97;5050601;28;19928;-72
2023/08/11 06:40:50;;;;;;;;;;;;;;;21.95;100.00;100240.47;5050966;28;19920;-72
2023/08/11 06:43:16;;;;;;;;;;;;;;;22.05;100.00;100248.97;5044458;28;19966;-73
2023/08/11 06:45:44;;;;;;;;;;;;;;;22.15;100.00;100249.41;5033010;28;19928;-71
2023/08/11 06:48:10;;;;;;;;;;;;;;;22.23;100.00;100246.56;5051175;28;20366;-72
2023/08/11 06:50:35;;;;;;;;;;;;;;;22.31;100.00;100249.09;5050667;28;19928;-72
2023/08/11 06:53:00;;;;;;;;;;;;;;;22.34;100.00;100258.59;5050423;28;19921;-73
2023/08/11 06:55:26;;;;;;;;;;;;;;;22.38;100.00;100260.66;5050539;28;19928;-72
2023/08/11 06:57:51;;;;;;;;;;;;;;;22.37;100.00;100259.03;5050884;28;20400;-72
2023/08/11 07:00:16;;;;;;;;;;;;;;;22.36;100.00;100262.75;5049414;28;20405;-72
2023/08/11 07:02:42;;;;;;;;;;;;;;;22.39;100.00;100256.97;5050401;28;20015;-72
2023/08/11 07:05:07;;;;;;;;;;;;;;;22.45;100.00;100261.53;5051076;28;20003;-71
2023/08/11 07:07:32;;;;;;;;;;;;;;;22.56;100.00;100262.00;5050050;28;20118;-72
2023/08/11 07:09:58;;;;;;;;;;;;;;;22.65;100.00;100271.50;5050837;28;19921;-71
2023/08/11 07:12:23;;;;;;;;;;;;;;;22.73;100.00;100269.50;5050323;28;20016;-72
2023/08/11 07:14:49;;;;;;;;;;;;;;;22.84;100.00;100276.16;5051152;28;19920;-72
2023/08/11 07:17:15;;;;;;;;;;;;;;;22.90;100.00;100269.94;5050131;28;20039;-72
2023/08/11 07:19:40;;;;;;;;;;;;;;;23.00;100.00;100275.75;5049463;28;20008;-72
2023/08/11 07:22:05;;;;;;;;;;;;;;;23.07;100.00;100271.19;5050450;28;20031;-73
2023/08/11 07:24:31;;;;;;;;;;;;;;;23.16;100.00;100280.72;5050109;28;19947;-73
2023/08/11 07:26:56;;;;;;;;;;;;;;;23.19;100.00;100274.94;5050527;28;20023;-72
2023/08/11 07:29:21;;;;;;;;;;;;;;;23.23;100.00;100286.09;5050460;28;19920;-72
2023/08/11 07:31:47;;;;;;;;;;;;;;;23.27;100.00;100288.16;5040622;28;19924;-72
2023/08/11 07:34:12;;;;;;;;;;;;;;;23.38;100.00;100288.59;5053219;28;19928;-72
2023/08/11 07:36:37;;;;;;;;;;;;;;;23.41;100.00;100289.00;5054066;28;19925;-72
2023/08/11 07:39:03;;;;;;;;;;;;;;;23.48;100.00;100289.88;5053710;28;19932;-71
2023/08/11 07:41:28;;;;;;;;;;;;;;;23.59;100.00;100285.69;5053413;28;19960;-72
2023/08/11 07:43:54;;;;;;;;;;;;;;;23.68;100.00;100287.13;5053998;28;19920;-72
2023/08/11 07:46:19;;;;;;;;;;;;;;;23.75;100.00;100290.63;5053248;28;19925;-71
2023/08/11 07:48:44;;;;;;;;;;;;;;;23.79;100.00;100291.91;5054074;28;19972;-72
2023/08/11 07:51:10;;;;;;;;;;;;;;;23.81;100.00;100284.41;5053912;28;19947;-71
2023/08/11 07:53:36;;;;;;;;;;;;;;;23.85;100.00;100290.22;5053031;28;20909;-72
2023/08/11 07:56:02;;;;;;;;;;;;;;;23.94;100.00;100289.78;5053847;28;19933;-72
2023/08/11 07:58:27;;;;;;;;;;;;;;;23.94;100.00;100283.56;5053272;28;19924;-71
2023/08/11 08:00:52;;;;;;;;;;;;;;;24.00;100.00;100288.94;5053481;28;19928;-71
2023/08/11 08:03:18;;;;;;;;;;;;;;;24.08;100.00;100286.00;5053374;28;19921;-71
2023/08/11 08:05:43;;;;;;;;;;;;;;;24.18;100.00;100287.41;5053717;28;19925;-72
2023/08/11 08:08:08;;;;;;;;;;;;;;;24.28;100.00;100295.91;5053365;28;19921;-73
2023/08/11 08:10:34;;;;;;;;;;;;;;;24.37;100.00;100281.16;5053034;28;19974;-73
2023/08/11 08:12:59;;;;;;;;;;;;;;;24.42;100.00;100292.13;5053514;28;20023;-72
2023/08/11 08:15:28;;;;;;;;;;;;;;;24.47;100.00;100290.44;5053082;28;19936;-72
2023/08/11 08:17:53;;;;;;;;;;;;;;;24.50;100.00;100294.59;5053191;28;19920;-72
2023/08/11 08:20:18;;;;;;;;;;;;;;;24.53;100.00;100291.44;5053325;28;19921;-73
2023/08/11 08:22:44;;;;;;;;;;;;;;;24.55;100.00;100292.06;5053212;28;20011;-70
2023/08/11 08:25:09;;;;;;;;;;;;;;;24.63;100.00;100294.50;5053278;28;19921;-72
2023/08/11 08:27:35;;;;;;;;;;;;;;;24.70;100.00;100299.84;5052948;28;19920;-71
2023/08/11 08:30:00;;;;;;;;;;;;;;;24.74;100.00;100304.59;5053227;28;19917;-72
2023/08/11 08:32:26;;;;;;;;;;;;;;;24.81;100.00;100304.56;5052456;28;19921;-71
2023/08/11 08:34:52;;;;;;;;;;;;;;;24.84;100.00;100307.66;5053281;28;20353;-71
2023/08/11 08:37:20;;;;;;;;;;;;;;;24.84;100.00;100302.28;5052782;28;19924;-71
2023/08/11 08:39:48;;;;;;;;;;;;;;;24.91;100.00;100304.13;5052751;28;19921;-71
2023/08/11 08:42:15;;;;;;;;;;;;;;;24.97;100.00;100305.97;5052705;28;20023;-72
2023/08/11 08:44:41;;;;;;;;;;;;;;;24.98;100.00;100302.19;5048499;28;19956;-73
2023/08/11 08:47:07;;;;;;;;;;;;;;;25.04;100.00;100306.72;5052065;28;19920;-71
2023/08/11 08:49:32;;;;;;;;;;;;;;;25.08;100.00;100297.97;5052392;28;20342;-72
2023/08/11 08:51:58;;;;;;;;;;;;;;;25.12;100.00;100291.09;5052631;28;19921;-71
2023/08/11 08:54:24;;;;;;;;;;;;;;;25.18;100.00;100300.19;5052359;28;19920;-72
2023/08/11 08:56:51;;;;;;;;;;;;;;;25.21;100.00;100297.06;5052472;28;19920;-71
2023/08/11 08:59:16;;;;;;;;;;;;;;;25.25;100.00;100296.41;5052575;28;20449;-71
2023/08/11 09:01:42;;;;;;;;;;;;;;;25.30;100.00;100295.72;5052079;28;20003;-72
2023/08/11 09:04:07;;;;;;;;;;;;;;;25.34;100.00;100291.53;5052395;28;20270;-71
2023/08/11 09:06:34;;;;;;;;;;;;;;;25.40;100.00;100290.63;5052157;28;19932;-71
2023/08/11 09:08:59;;;;;;;;;;;;;;;25.45;100.00;100290.81;5052379;28;19917;-72
2023/08/11 09:11:26;;;;;;;;;;;;;;;25.52;100.00;100288.88;5051885;28;20011;-72
2023/08/11 09:13:51;;;;;;;;;;;;;;;25.59;100.00;100289.66;5052306;28;19955;-72
2023/08/11 09:16:16;;;;;;;;;;;;;;;25.66;100.00;100295.00;5051827;28;19971;-72
2023/08/11 09:18:45;;;;;;;;;;;;;;;25.71;100.00;100280.81;5052661;28;20016;-73
2023/08/11 09:21:11;;;;;;;;;;;;;;;25.79;100.00;100280.53;5051674;28;19943;-73
2023/08/11 09:23:36;;;;;;;;;;;;;;;25.84;100.00;100280.69;5051803;28;19921;-73
2023/08/11 09:26:02;;;;;;;;;;;;;;;25.89;100.00;100283.53;5052099;28;19928;-71
2023/08/11 09:28:27;;;;;;;;;;;;;;;25.92;100.00;100285.81;5051730;28;19991;-71
2023/08/11 09:30:53;;;;;;;;;;;;;;;25.95;100.00;100282.66;5051452;28;19952;-71
2023/08/11 09:33:21;;;;;;;;;;;;;;;25.98;100.00;100291.13;5051589;28;19921;-70
2023/08/11 09:35:46;;;;;;;;;;;;;;;26.05;100.00;100282.94;5052017;28;20380;-72
2023/08/11 09:38:11;;;;;;;;;;;;;;;26.10;100.00;100280.38;5052029;28;19931;-73
2023/08/11 09:40:37;;;;;;;;;;;;;;;26.13;100.00;100274.53;5051551;28;19928;-73
2023/08/11 09:43:02;;;;;;;;;;;;;;;26.18;100.00;100282.78;5052018;28;20284;-71
2023/08/11 09:45:29;;;;;;;;;;;;;;;26.24;100.00;100276.50;5050922;28;19920;-72
2023/08/11 09:47:55;;;;;;;;;;;;;;;26.30;100.00;100274.75;5051678;28;20353;-72
2023/08/11 09:50:23;;;;;;;;;;;;;;;26.34;100.00;100275.94;5051366;28;19921;-72
2023/08/11 09:52:49;;;;;;;;;;;;;;;26.39;100.00;100279.63;5051617;28;20328;-73
2023/08/11 09:55:15;;;;;;;;;;;;;;;26.43;100.00;100270.00;5051261;28;20024;-72
2023/08/11 09:57:41;;;;;;;;;;;;;;;26.47;100.00;100265.78;5049124;28;20468;-72
2023/08/11 10:00:12;;;;;;;;;;;;;;;26.49;100.00;100274.50;5049130;28;19978;-72
2023/08/11 10:02:39;;;;;;;;;;;;;;;26.54;100.00;100268.41;5047513;28;20443;-71
2023/08/11 10:05:07;;;;;;;;;;;;;;;26.59;100.00;100278.53;5034687;28;19929;-71
2023/08/11 10:07:34;;;;;;;;;;;;;;;26.57;100.00;100269.84;5051528;28;19931;-71
2023/08/11 10:10:00;;;;;;;;;;;;;;;26.61;100.00;100268.31;5051914;28;19927;-71
2023/08/11 10:12:26;;;;;;;;;;;;;;;26.66;100.00;100263.03;5051235;28;19946;-73
2023/08/11 10:14:51;;;;;;;;;;;;;;;26.70;100.00;100269.63;5051807;28;19920;-71
2023/08/11 10:17:17;;;;;;;;;;;;;;;26.75;100.00;100273.28;5050888;28;19920;-73
2023/08/11 10:19:42;;;;;;;;;;;;;;;26.82;100.00;100273.19;5051589;28;19959;-73
2023/08/11 10:22:08;;;;;;;;;;;;;;;26.85;100.00;100257.34;5051635;28;19958;-72
2023/08/11 10:24:37;;;;;;;;;;;;;;;26.89;100.00;100268.56;5051416;28;20042;-72
2023/08/11 10:27:02;;;;;;;;;;;;;;;27.03;100.00;100269.19;5051597;28;19972;-73
2023/08/11 10:29:28;;;;;;;;;;;;;;;27.05;100.00;100267.88;5051504;28;19948;-73
2023/08/11 10:31:54;;;;;;;;;;;;;;;27.09;99.35;100260.13;5050955;28;19947;-72
2023/08/11 10:34:23;;;;;;;;;;;;;;;27.14;99.62;100263.78;5051207;28;20284;-73
2023/08/11 10:36:49;;;;;;;;;;;;;;;27.18;97.41;100262.25;5051260;28;19924;-73
2023/08/11 10:39:17;;;;;;;;;;;;;;;27.29;96.07;100264.13;5050950;28;19960;-72
2023/08/11 10:41:45;;;;;;;;;;;;;;;27.32;96.99;100259.31;5050880;28;20477;-70
2023/08/11 10:44:11;;;;;;;;;;;;;;;27.29;96.28;100258.72;5047208;28;19964;-72
2023/08/11 10:46:36;;;;;;;;;;;;;;;27.30;96.97;100248.69;5050048;28;20412;-72
2023/08/11 10:49:05;;;;;;;;;;;;;;;27.35;96.38;100248.00;5033351;28;20012;-73
2023/08/11 10:51:36;;;;;;;;;;;;;;;27.41;96.83;100249.75;5050648;28;20377;-72
2023/08/11 10:54:11;;;;;;;;;;;;;;;27.41;96.15;100245.16;5050887;28;19917;-72
2023/08/11 10:56:36;;;;;;;;;;;;;;;27.44;96.17;100254.72;5050631;28;19924;-73
2023/08/11 10:59:16;;;;;;;;;;;;;;;27.40;96.10;100248.09;5050962;28;19971;-71
2023/08/11 11:01:43;;;;;;;;;;;;;;;27.40;96.51;100248.09;5046494;28;19969;-72
2023/08/11 11:04:08;;;;;;;;;;;;;;;27.47;94.63;100246.09;5050777;28;20009;-72
2023/08/11 11:06:35;;;;;;;;;;;;;;;27.48;94.99;100245.06;5050363;28;21170;-73
2023/08/11 11:09:01;;;;;;;;;;;;;;;27.52;94.71;100232.69;5053056;28;19921;-73
2023/08/11 11:11:27;;;;;;;;;;;;;;;27.58;95.00;100226.31;5052861;28;19928;-73
2023/08/11 11:13:53;;;;;;;;;;;;;;;27.62;94.28;100230.22;5054640;28;19924;-72
2023/08/11 11:16:19;;;;;;;;;;;;;;;27.64;94.28;100222.66;5053928;28;20384;-72
2023/08/11 11:18:47;;;;;;;;;;;;;;;27.66;93.87;100226.81;5054223;28;19983;-72
2023/08/11 11:21:12;;;;;;;;;;;;;;;27.73;93.90;100223.13;5050727;28;19921;-73
2023/08/11 11:23:37;;;;;;;;;;;;;;;27.79;93.98;100214.88;5053923;28;19944;-72
2023/08/11 11:26:03;;;;;;;;;;;;;;;27.81;93.49;100218.16;5054551;28;20029;-72
2023/08/11 11:28:28;;;;;;;;;;;;;;;27.83;94.76;100216.03;5054156;28;19921;-71
2023/08/11 11:30:54;;;;;;;;;;;;;;;27.90;94.61;100208.59;5054253;28;19925;-72
2023/08/11 11:33:21;;;;;;;;;;;;;;;27.95;94.66;100216.84;5053537;28;19971;-72
2023/08/11 11:35:47;;;;;;;;;;;;;;;27.99;93.98;100204.44;5054229;28;20024;-72
2023/08/11 11:38:12;;;;;;;;;;;;;;;28.07;93.05;100214.09;5053953;28;20003;-72
2023/08/11 11:40:38;;;;;;;;;;;;;;;28.17;91.86;100210.75;5054005;28;20020;-72
2023/08/11 11:43:03;;;;;;;;;;;;;;;28.30;90.90;100207.78;5053670;28;20007;-72
2023/08/11 11:45:29;;;;;;;;;;;;;;;28.35;89.41;100213.28;5053042;28;20019;-72
2023/08/11 11:47:54;;;;;;;;;;;;;;;28.42;89.78;100208.53;5055832;28;20016;-72
2023/08/11 11:50:21;;;;;;;;;;;;;;;28.47;88.56;100205.91;5053136;28;19963;-72
2023/08/11 11:52:47;;;;;;;;;;;;;;;28.53;87.95;100210.38;5053165;28;19932;-72
2023/08/11 11:55:12;;;;;;;;;;;;;;;28.57;87.00;100208.81;5036034;28;19921;-71
2023/08/11 11:57:38;;;;;;;;;;;;;;;28.61;87.09;100206.44;5053102;28;20011;-72
2023/08/11 12:00:07;;;;;;;;;;;;;;;28.67;87.94;100200.84;5053455;28;20353;-72
2023/08/11 12:02:38;;;;;;;;;;;;;;;28.82;87.08;100198.41;5052595;28;19928;-72
2023/08/11 12:05:04;;;;;;;;;;;;;;;28.98;86.51;100201.41;5053107;28;19936;-72
2023/08/11 12:07:30;;;;;;;;;;;;;;;29.15;84.79;100196.78;5052832;28;19921;-72
2023/08/11 12:09:55;;;;;;;;;;;;;;;29.28;83.81;100204.56;5053365;28;19921;-72
2023/08/11 12:12:28;;;;;;;;;;;;;;;29.45;84.44;100201.88;5052927;28;19978;-73
2023/08/11 12:14:59;;;;;;;;;;;;;;;29.65;82.97;100197.50;5053480;28;19925;-72
2023/08/11 12:17:25;;;;;;;;;;;;;;;29.91;81.00;100197.88;5052658;28;20016;-72
2023/08/11 12:19:50;;;;;;;;;;;;;;;29.97;79.57;100188.69;5052548;28;20094;-72
2023/08/11 12:22:16;;;;;;;;;;;;;;;30.10;80.61;100194.56;5052559;28;20026;-71